Time;durP1;ratioP1;P1;durP2;ratioP2;P2;SDS_P1;SDS_P2;PMS_P1;PMS_P2;Temp;Humidity;BMP_temperature;BMP_pressure;BME280_temperature;BME280_humidity;BME280_pressure;Samples;Min_cycle;Max_cycle;Signal;HPM_P1;HPM_P2
2022/06/01 00:01:11;;;;;;;16.45;10.25;;;;;;;19.35;70.83;100834.47;4969990;29;19918;-83
2022/06/01 00:03:39;;;;;;;18.02;10.63;;;;;;;19.44;70.45;100833.19;4934603;29;20039;-81
2022/06/01 00:06:04;;;;;;;13.65;10.50;;;;;;;19.40;70.50;100827.31;4934357;29;20118;-83
2022/06/01 00:08:31;;;;;;;;;;;;;;;19.35;70.54;100835.28;4964275;28;20138;-81
2022/06/01 00:10:58;;;;;;;14.63;9.98;;;;;;;19.28;70.95;100830.94;4951678;28;20030;-84
2022/06/01 00:13:26;;;;;;;14.88;10.77;;;;;;;19.33;70.69;100831.13;4952097;29;20027;-84
2022/06/01 00:15:54;;;;;;;16.65;10.32;;;;;;;19.30;70.96;100831.56;4935551;29;20031;-82
2022/06/01 00:18:20;;;;;;;17.33;10.60;;;;;;;19.07;71.79;100827.41;4949814;29;20502;-84
2022/06/01 00:20:47;;;;;;;14.52;10.38;;;;;;;19.10;72.08;100820.69;4920194;28;20484;-83
2022/06/01 00:23:17;;;;;;;13.57;9.90;;;;;;;19.03;71.70;100817.97;4932616;29;20051;-82
2022/06/01 00:25:43;;;;;;;15.18;10.52;;;;;;;18.97;71.80;100813.41;4950817;29;20043;-82
2022/06/01 00:28:15;;;;;;;;;;;;;;;18.86;72.26;100814.88;4963353;28;20032;-81
2022/06/01 00:30:44;;;;;;;16.42;10.13;;;;;;;18.73;72.53;100817.56;4949611;28;20012;-82
2022/06/01 00:33:11;;;;;;;15.98;10.13;;;;;;;18.73;72.58;100818.44;4964209;28;20042;-82
2022/06/01 00:35:40;;;;;;;17.23;11.02;;;;;;;18.78;72.36;100812.38;4948735;28;20042;-82
2022/06/01 00:38:06;;;;;;;15.52;11.18;;;;;;;18.71;72.19;100790.56;4962549;28;20105;-82
2022/06/01 00:40:31;;;;;;;;;;;;;;;18.64;73.09;100814.25;4966634;28;20028;-82
2022/06/01 00:42:58;;;;;;;17.08;10.50;;;;;;;18.55;72.83;100796.44;4975561;28;20322;-81
2022/06/01 00:45:25;;;;;;;14.93;10.82;;;;;;;18.56;72.93;100793.50;4933489;29;20045;-82
2022/06/01 00:47:51;;;;;;;20.77;11.63;;;;;;;18.61;73.16;100798.31;4950886;29;20040;-82
2022/06/01 00:50:36;;;;;;;;;;;;;;;18.63;73.30;100800.81;4935267;29;20045;-82
2022/06/01 00:53:06;;;;;;;30.33;18.00;;;;;;;18.61;73.05;100789.31;4960729;28;19922;-82
2022/06/01 00:55:41;;;;;;;32.63;18.83;;;;;;;18.59;73.36;100796.84;4933203;29;20078;-81
2022/06/01 00:58:32;;;;;;;33.67;21.10;;;;;;;18.65;73.11;100780.50;4950899;29;20039;-83
2022/06/01 01:01:08;;;;;;;43.88;25.88;;;;;;;18.69;73.05;100781.75;4945894;28;20126;-82
2022/06/01 01:03:34;;;;;;;;;;;;;;;18.74;73.06;100786.56;4955054;28;20035;-82
2022/06/01 01:06:20;;;;;;;60.05;30.20;;;;;;;18.69;73.29;100787.22;4948345;29;19969;-82
2022/06/01 01:08:47;;;;;;;61.03;32.33;;;;;;;18.69;73.01;100759.97;4946725;28;20038;-82
2022/06/01 01:11:13;;;;;;;64.65;34.85;;;;;;;18.87;72.73;100781.16;4934066;29;20055;-83
2022/06/01 01:13:42;;;;;;;70.88;37.13;;;;;;;18.74;73.11;100772.97;4948070;28;20051;-83
2022/06/01 01:16:10;;;;;;;67.72;37.15;;;;;;;18.74;73.50;100776.50;4950380;29;20471;-83
2022/06/01 01:18:38;;;;;;;66.85;36.05;;;;;;;18.71;73.12;100767.94;4951138;29;20098;-82
2022/06/01 01:21:54;;;;;;;62.88;35.83;;;;;;;18.75;73.53;100777.34;4949026;28;20478;-83
2022/06/01 01:24:41;;;;;;;61.38;33.42;;;;;;;18.74;73.54;100764.78;4908487;29;20220;-83
2022/06/01 01:27:07;;;;;;;56.30;31.35;;;;;;;18.52;73.59;100747.88;4909119;29;20119;-83
2022/06/01 01:30:18;;;;;;;57.60;31.75;;;;;;;18.52;74.00;100758.75;4911824;29;20063;-83
2022/06/01 01:32:45;;;;;;;46.17;27.70;;;;;;;18.55;73.83;100767.31;4951447;29;20039;-82
2022/06/01 01:35:12;;;;;;;48.28;27.75;;;;;;;18.53;73.48;100749.53;4951080;28;20032;-82
2022/06/01 01:37:38;;;;;;;42.28;27.05;;;;;;;18.61;73.56;100771.06;4938171;29;20031;-82
2022/06/01 01:40:06;;;;;;;;;;;;;;;18.70;73.31;100767.09;4966474;28;20456;-83
2022/06/01 01:42:33;;;;;;;46.28;25.42;;;;;;;18.64;73.25;100767.13;4967108;28;19940;-82
2022/06/01 01:45:07;;;;;;;48.38;26.92;;;;;;;18.60;73.09;100774.88;4952431;28;20058;-82
2022/06/01 01:47:40;;;;;;;53.20;31.02;;;;;;;18.56;73.44;100777.16;4946157;28;20042;-82
2022/06/01 01:50:09;;;;;;;60.80;36.05;;;;;;;18.62;73.43;100761.88;4952519;29;20035;-82
2022/06/01 01:52:35;;;;;;;77.10;41.13;;;;;;;18.60;74.19;100768.59;4954218;28;20070;-84
2022/06/01 01:55:24;;;;;;;78.22;43.80;;;;;;;18.52;74.65;100766.94;4951295;28;20405;-82
2022/06/01 01:58:08;;;;;;;71.43;42.58;;;;;;;18.55;74.30;100774.66;4932818;28;20126;-83
2022/06/01 02:00:36;;;;;;;77.78;41.28;;;;;;;18.50;74.04;100771.75;4967578;28;20027;-82
2022/06/01 02:03:22;;;;;;;73.35;41.10;;;;;;;18.52;73.92;100769.66;4961597;28;20039;-82
2022/06/01 02:06:21;;;;;;;76.55;40.85;;;;;;;18.36;74.51;100765.47;4967756;28;20054;-83
2022/06/01 02:09:01;;;;;;;80.82;41.35;;;;;;;18.32;74.79;100758.75;4949658;29;20531;-83
2022/06/01 02:14:48;;;;;;;66.63;38.10;;;;;;;18.09;75.42;100759.16;4953650;29;20034;-83
2022/06/01 02:17:49;;;;;;;75.28;36.33;;;;;;;18.14;75.35;100764.81;4934898;29;20062;-83
2022/06/01 02:20:49;;;;;;;62.60;35.20;;;;;;;18.17;75.57;100766.28;4953570;28;20031;-83
2022/06/01 02:23:15;;;;;;;60.42;34.17;;;;;;;18.03;75.48;100760.84;4953627;28;20516;-83
2022/06/01 02:25:41;;;;;;;;;;;;;;;18.10;75.54;100766.28;4968203;28;20041;-82
2022/06/01 02:28:07;;;;;;;55.47;31.73;;;;;;;18.07;75.40;100761.25;4936867;29;20387;-84
2022/06/01 02:30:34;;;;;;;;;;;;;;;18.14;75.19;100770.25;4952451;29;20079;-81
2022/06/01 02:33:01;;;;;;;56.67;32.15;;;;;;;18.09;75.29;100765.44;4969815;28;19918;-82
2022/06/01 02:35:29;;;;;;;63.30;32.33;;;;;;;18.12;75.21;100764.19;4950942;28;20034;-83
2022/06/01 02:38:02;;;;;;;60.03;33.13;;;;;;;18.14;74.82;100768.38;4935653;29;20035;-82
2022/06/01 02:40:30;;;;;;;58.72;32.42;;;;;;;18.13;74.97;100765.88;4966023;28;20039;-82
2022/06/01 02:42:56;;;;;;;54.72;30.80;;;;;;;18.18;74.60;100776.97;4966953;28;20051;-82
2022/06/01 02:45:24;;;;;;;;;;;;;;;18.16;74.46;100783.66;4968688;28;20035;-82
2022/06/01 02:47:52;;;;;;;41.45;25.95;;;;;;;18.16;73.97;100772.78;4968790;28;20450;-82
2022/06/01 02:50:21;;;;;;;43.50;25.85;;;;;;;18.17;74.07;100778.03;4950106;28;20047;-83
2022/06/01 02:52:46;;;;;;;36.25;24.00;;;;;;;18.22;73.48;100775.50;4963851;28;20062;-82
2022/06/01 02:55:13;;;;;;;;;;;;;;;18.14;73.49;100787.44;4958670;28;20114;-83
2022/06/01 02:57:41;;;;;;;40.10;23.40;;;;;;;18.16;73.47;100781.78;4950590;28;19922;-83
2022/06/01 03:00:09;;;;;;;44.28;22.65;;;;;;;18.07;73.88;100783.84;4953182;28;20050;-83
2022/06/01 03:02:42;;;;;;;40.28;22.55;;;;;;;18.06;73.57;100773.19;4938467;29;20035;-82
2022/06/01 03:05:09;;;;;;;34.05;21.15;;;;;;;18.21;72.71;100787.41;4959667;28;20119;-82
2022/06/01 03:07:41;;;;;;;29.67;20.13;;;;;;;18.27;72.61;100778.44;4968371;28;20059;-82
2022/06/01 03:10:07;;;;;;;33.67;20.73;;;;;;;18.40;72.41;100782.19;4966609;28;20121;-84
2022/06/01 03:12:33;;;;;;;;;;;;;;;18.49;72.05;100789.09;4950896;28;20090;-82
2022/06/01 03:14:58;;;;;;;30.45;18.90;;;;;;;18.43;71.92;100774.47;4953276;28;20244;-83
2022/06/01 03:17:27;;;;;;;;;;;;;;;18.54;71.92;100792.03;4966831;28;20054;-83
2022/06/01 03:19:56;;;;;;;28.95;17.02;;;;;;;18.59;71.70;100792.25;4951710;29;19918;-83
2022/06/01 03:22:23;;;;;;;27.85;16.63;;;;;;;18.52;71.65;100791.44;4935892;29;20159;-82
2022/06/01 03:24:53;;;;;;;33.95;17.10;;;;;;;18.66;71.01;100782.19;4954266;28;20043;-83
2022/06/01 03:27:21;;;;;;;24.35;15.10;;;;;;;18.72;71.11;100789.50;4966225;28;20097;-83
2022/06/01 03:29:47;;;;;;;25.02;14.93;;;;;;;18.83;70.59;100789.97;4953025;28;20027;-83
2022/06/01 03:32:15;;;;;;;25.23;14.95;;;;;;;18.87;70.01;100785.72;4952471;28;20058;-82
2022/06/01 03:34:41;;;;;;;25.55;15.02;;;;;;;18.88;70.31;100779.25;4951388;28;20126;-83
2022/06/01 03:37:12;;;;;;;;;;;;;;;19.00;70.18;100793.06;4952392;28;20114;-82
2022/06/01 03:39:39;;;;;;;24.00;14.38;;;;;;;18.90;69.82;100778.00;4950663;28;20009;-81
2022/06/01 03:42:05;;;;;;;32.58;15.95;;;;;;;19.03;70.18;100798.91;4934042;29;20059;-84
2022/06/01 03:47:15;;;;;;;31.00;15.40;;;;;;;19.00;70.10;100796.63;4951064;28;20004;-82
2022/06/01 03:49:42;;;;;;;21.13;14.65;;;;;;;19.12;69.55;100805.78;4950578;28;20130;-82
2022/06/01 03:52:08;;;;;;;23.70;13.82;;;;;;;19.22;69.22;100802.63;4941036;29;20061;-83
2022/06/01 03:54:34;;;;;;;;;;;;;;;19.21;69.16;100806.41;4959943;29;20031;-81
2022/06/01 03:57:01;;;;;;;30.30;14.20;;;;;;;19.14;69.41;100811.88;4977309;28;19982;-83
2022/06/01 03:59:27;;;;;;;19.13;13.70;;;;;;;19.37;68.90;100810.56;4932638;28;20035;-82
2022/06/01 04:01:53;;;;;;;22.38;14.13;;;;;;;19.40;68.64;100799.22;4950851;28;21101;-82
2022/06/01 04:04:19;;;;;;;;;;;;;;;19.47;68.47;100810.09;4940596;29;20051;-84
2022/06/01 04:06:47;;;;;;;26.10;14.48;;;;;;;19.54;68.19;100816.34;4955017;28;20417;-83
2022/06/01 04:09:13;;;;;;;24.05;13.75;;;;;;;19.75;67.81;100813.34;4949671;28;20034;-84
2022/06/01 04:11:42;;;;;;;;;;;;;;;19.98;66.86;100823.72;4951216;28;20062;-83
2022/06/01 04:14:13;;;;;;;21.33;12.80;;;;;;;20.04;66.43;100816.53;4952218;28;19977;-84
2022/06/01 04:16:41;;;;;;;21.58;12.90;;;;;;;20.28;66.12;100812.19;4932821;29;20035;-84
2022/06/01 04:19:08;;;;;;;23.08;12.45;;;;;;;20.53;65.39;100825.00;4935244;29;20122;-83
2022/06/01 04:21:35;;;;;;;24.50;12.93;;;;;;;20.68;64.90;100822.00;4934601;29;20117;-85
2022/06/01 04:24:01;;;;;;;22.23;12.57;;;;;;;20.73;64.16;100809.31;4919190;29;20733;-81
2022/06/01 04:26:28;;;;;;;25.02;13.55;;;;;;;21.02;63.74;100821.41;4951044;29;20035;-84
2022/06/01 04:28:59;;;;;;;19.55;12.57;;;;;;;21.14;63.31;100807.88;4933555;29;20039;-82
2022/06/01 04:31:27;;;;;;;26.10;12.18;;;;;;;21.28;62.63;100822.19;4951448;28;20071;-82
2022/06/01 04:33:54;;;;;;;22.42;11.75;;;;;;;21.56;62.13;100835.34;4951890;28;20027;-82
2022/06/01 04:36:22;;;;;;;26.70;12.77;;;;;;;21.85;61.75;100832.91;4949499;28;20051;-92
2022/06/01 04:38:47;;;;;;;34.15;13.55;;;;;;;22.16;60.95;100830.97;4968251;28;20042;-85
2022/06/01 04:41:13;;;;;;;22.90;12.32;;;;;;;22.50;59.93;100827.53;4950219;29;20480;-86
2022/06/01 04:43:39;;;;;;;29.13;12.82;;;;;;;22.79;59.20;100833.16;4966335;28;20077;-84
2022/06/01 04:46:05;;;;;;;25.15;12.50;;;;;;;23.11;58.08;100835.56;4953688;28;20063;-85
2022/06/01 04:48:32;;;;;;;27.60;13.57;;;;;;;23.29;57.43;100832.66;4963726;28;20044;-84
2022/06/01 04:51:00;;;;;;;24.38;13.38;;;;;;;23.50;57.11;100822.13;4945517;29;20047;-84
2022/06/01 04:53:28;;;;;;;23.27;13.73;;;;;;;23.75;55.91;100821.84;4950712;29;20039;-83
2022/06/01 04:55:56;;;;;;;24.02;14.35;;;;;;;24.15;54.79;100837.41;4960503;29;20039;-84
2022/06/01 04:58:24;;;;;;;42.25;13.73;;;;;;;24.37;54.42;100840.25;4962583;28;20130;-83
2022/06/01 05:00:50;;;;;;;28.70;15.20;;;;;;;24.60;53.39;100840.13;4953200;29;20043;-87
2022/06/01 05:03:16;;;;;;;26.20;15.27;;;;;;;24.89;52.59;100851.06;4951203;29;20035;-86
2022/06/01 05:05:42;;;;;;;34.45;15.25;;;;;;;25.00;52.12;100835.53;4977003;28;20073;-84
2022/06/01 05:08:12;;;;;;;31.27;15.20;;;;;;;25.20;52.10;100851.53;4957017;29;20042;-90
2022/06/01 05:10:39;;;;;;;25.15;14.95;;;;;;;25.09;51.85;100841.44;4935168;29;20114;-88
2022/06/01 05:13:06;;;;;;;24.95;15.02;;;;;;;25.20;52.04;100854.28;4956941;29;20491;-87
2022/06/01 05:15:32;;;;;;;25.73;14.93;;;;;;;25.33;51.34;100851.16;4970230;28;20043;-91
2022/06/01 05:18:02;;;;;;;25.83;15.40;;;;;;;25.55;50.94;100855.84;4954712;29;20039;-89
2022/06/01 05:20:27;;;;;;;32.50;16.98;;;;;;;25.34;51.25;100850.09;4958123;29;20031;-89
2022/06/01 05:22:53;;;;;;;23.88;16.80;;;;;;;25.54;51.39;100856.94;4939573;29;20197;-89
2022/06/01 05:25:21;;;;;;;24.30;14.35;;;;;;;25.64;50.89;100857.06;4970016;28;20058;-90
2022/06/01 05:27:49;;;;;;;32.85;13.93;;;;;;;25.74;50.49;100848.94;4957326;29;20027;-90
2022/06/01 05:30:17;;;;;;;24.83;12.80;;;;;;;25.86;50.30;100854.28;4954997;28;20074;-89
2022/06/01 05:32:43;;;;;;;31.10;11.93;;;;;;;26.00;50.27;100855.59;4964614;28;20049;-90
2022/06/01 05:35:10;;;;;;;23.70;12.80;;;;;;;26.14;50.24;100852.44;4955040;29;20122;-89
2022/06/01 05:37:36;;;;;;;21.48;11.60;;;;;;;26.09;49.40;100840.25;4954413;28;20500;-90
2022/06/01 05:40:01;;;;;;;40.58;15.65;;;;;;;26.29;49.59;100849.81;4950986;29;20424;-86
2022/06/01 05:42:27;;;;;;;34.55;16.02;;;;;;;26.44;49.35;100841.69;4972436;28;20040;-89
2022/06/01 05:44:55;;;;;;;25.02;14.43;;;;;;;26.44;49.23;100832.59;4942712;29;20047;-88
2022/06/01 05:47:22;;;;;;;35.95;14.63;;;;;;;26.64;48.90;100843.78;4970807;28;20055;-91
2022/06/01 05:49:55;;;;;;;24.73;13.68;;;;;;;26.72;48.69;100846.06;4955356;29;20046;-94
2022/06/01 05:52:21;;;;;;;21.38;13.63;;;;;;;26.90;48.47;100852.25;4957300;28;20484;-84
2022/06/01 05:54:49;;;;;;;27.55;13.32;;;;;;;27.00;47.87;100833.03;4935491;29;20145;-84
2022/06/01 05:57:16;;;;;;;23.42;12.23;;;;;;;27.41;46.96;100847.06;4952339;28;20039;-81
2022/06/01 05:59:43;;;;;;;23.98;14.52;;;;;;;27.76;46.44;100849.13;4968703;28;20570;-82
2022/06/01 06:02:10;;;;;;;28.75;15.25;;;;;;;28.01;45.63;100849.53;4952747;28;20046;-82
2022/06/01 06:04:36;;;;;;;27.73;15.48;;;;;;;28.25;45.57;100836.84;4967096;28;20594;-82
2022/06/01 06:07:02;;;;;;;22.95;15.68;;;;;;;28.46;44.63;100834.09;4954369;28;20134;-81
2022/06/01 06:09:27;;;;;;;29.17;16.35;;;;;;;28.51;44.81;100836.91;4948896;28;20408;-81
2022/06/01 06:11:54;;;;;;;33.28;15.93;;;;;;;28.64;44.86;100841.06;4968492;28;20106;-82
2022/06/01 06:14:21;;;;;;;28.05;14.02;;;;;;;28.86;44.07;100840.75;4950303;29;20051;-82
2022/06/01 06:16:47;;;;;;;21.63;12.18;;;;;;;29.07;43.85;100844.31;4952776;29;20487;-81
2022/06/01 06:19:14;;;;;;;24.45;13.02;;;;;;;29.20;43.41;100843.75;4939335;29;20047;-85
2022/06/01 06:21:40;;;;;;;25.65;12.25;;;;;;;29.31;43.10;100825.16;4968255;28;20074;-80
2022/06/01 06:24:07;;;;;;;25.98;11.75;;;;;;;29.56;42.45;100836.13;4952414;29;20063;-81
2022/06/01 06:26:33;;;;;;;22.02;11.00;;;;;;;29.81;42.23;100835.22;4952522;29;20023;-83
2022/06/01 06:29:04;;;;;;;24.95;11.15;;;;;;;30.05;41.74;100838.13;4967765;28;20114;-82
2022/06/01 06:31:31;;;;;;;23.52;10.90;;;;;;;30.17;41.74;100837.75;4954183;29;20057;-81
2022/06/01 06:33:59;;;;;;;22.00;11.65;;;;;;;30.16;41.03;100821.44;4937407;29;20488;-83
2022/06/01 06:36:26;;;;;;;20.38;10.05;;;;;;;30.29;41.31;100835.47;4955068;29;20046;-81
2022/06/01 06:38:52;;;;;;;20.48;10.98;;;;;;;30.27;40.51;100809.16;4955286;28;20086;-80
2022/06/01 06:41:21;;;;;;;16.25;9.27;;;;;;;30.60;40.68;100824.16;4954531;29;20057;-82
2022/06/01 06:43:49;;;;;;;15.90;9.20;;;;;;;30.63;40.28;100825.50;4954593;29;20043;-81
2022/06/01 06:46:19;;;;;;;22.67;10.10;;;;;;;30.95;39.87;100840.75;4952349;29;20114;-82
2022/06/01 06:48:45;;;;;;;19.15;9.82;;;;;;;30.96;39.48;100829.38;4953391;28;20035;-82
2022/06/01 06:51:12;;;;;;;17.25;8.55;;;;;;;30.90;39.63;100811.91;4968779;28;20051;-84
2022/06/01 06:53:39;;;;;;;17.65;8.38;;;;;;;31.17;39.22;100829.97;4955898;28;20530;-83
2022/06/01 06:56:04;;;;;;;19.33;8.25;;;;;;;31.36;38.93;100831.97;4976132;28;20076;-89
2022/06/01 06:58:30;;;;;;;17.60;7.97;;;;;;;31.42;38.23;100837.22;4978519;28;20082;-82
2022/06/01 07:00:56;;;;;;;15.35;8.07;;;;;;;31.36;38.37;100830.03;4956512;29;20051;-81
2022/06/01 07:03:21;;;;;;;17.95;8.57;;;;;;;31.59;38.24;100833.13;4953287;28;20496;-81
2022/06/01 07:08:34;;;;;;;14.68;7.47;;;;;;;32.02;37.94;100828.34;4968177;28;20074;-84
2022/06/01 07:10:59;;;;;;;14.25;7.75;;;;;;;32.23;37.43;100822.47;4930518;28;20043;-81
2022/06/01 07:13:38;;;;;;;14.98;8.25;;;;;;;32.40;36.46;100817.16;4962118;29;20047;-82
2022/06/01 07:16:13;;;;;;;20.13;8.82;;;;;;;32.47;36.66;100817.59;4953226;28;20480;-81
2022/06/01 07:18:41;;;;;;;20.88;8.73;;;;;;;32.64;36.05;100816.25;4953970;28;20035;-81
2022/06/01 07:21:08;;;;;;;16.13;8.13;;;;;;;32.82;35.71;100818.13;4968019;28;20500;-80
2022/06/01 07:23:37;;;;;;;16.02;7.53;;;;;;;32.78;35.14;100817.94;4952798;29;20491;-82
2022/06/01 07:26:03;;;;;;;18.33;7.00;;;;;;;32.96;35.43;100807.84;4935993;29;20450;-84
2022/06/01 07:28:33;;;;;;;20.20;9.98;;;;;;;33.07;34.74;100824.41;4932757;29;20045;-92
2022/06/01 07:30:59;;;;;;;11.48;5.72;;;;;;;32.70;35.19;100815.03;4948938;29;20116;-81
2022/06/01 07:33:26;;;;;;;16.38;7.30;;;;;;;31.68;37.77;100817.41;4954483;28;20048;-84
2022/06/01 07:35:52;;;;;;;27.60;7.85;;;;;;;31.89;37.87;100838.25;4967460;28;20043;-81
2022/06/01 07:43:47;;;;;;;17.27;10.02;;;;;;;30.24;41.19;100837.44;4952167;29;20125;-82
2022/06/01 07:46:13;;;;;;;16.90;10.13;;;;;;;30.34;41.06;100837.38;4966665;28;20039;-80
2022/06/01 07:48:40;;;;;;;18.48;9.48;;;;;;;30.52;40.87;100841.41;4941409;29;20035;-82
2022/06/01 07:51:05;;;;;;;14.88;9.73;;;;;;;30.49;40.97;100842.00;4940664;29;20035;-82
2022/06/01 07:53:31;;;;;;;13.07;9.10;;;;;;;30.43;41.10;100841.19;4956955;29;20042;-82
2022/06/01 07:55:56;;;;;;;14.18;8.30;;;;;;;30.32;41.49;100853.50;4959859;28;20045;-82
2022/06/01 07:58:22;;;;;;;12.25;7.78;;;;;;;30.38;41.21;100840.41;4967672;28;20027;-82
2022/06/01 08:00:48;;;;;;;12.85;8.65;;;;;;;30.03;41.45;100845.88;4954693;29;20112;-82
2022/06/01 08:03:15;;;;;;;12.50;9.00;;;;;;;30.01;41.71;100845.34;4953310;28;20030;-81
2022/06/01 08:05:40;;;;;;;13.35;8.20;;;;;;;30.37;41.31;100842.38;4950685;28;20459;-81
2022/06/01 08:08:06;;;;;;;30.83;8.50;;;;;;;30.84;40.27;100843.66;4951792;29;20031;-83
2022/06/01 08:10:32;;;;;;;13.73;7.07;;;;;;;31.01;39.69;100845.97;4958306;29;20059;-82
2022/06/01 08:13:06;;;;;;;12.55;8.15;;;;;;;31.13;38.62;100853.88;4934953;29;20055;-82
2022/06/01 08:15:34;;;;;;;15.07;8.40;;;;;;;30.96;39.77;100850.75;4951240;29;20500;-82
2022/06/01 08:17:59;;;;;;;12.35;7.70;;;;;;;31.03;40.05;100851.22;4951393;29;20421;-81
2022/06/01 08:20:26;;;;;;;12.00;7.55;;;;;;;30.83;39.43;100852.22;4952348;28;20054;-84
2022/06/01 08:22:52;;;;;;;12.52;6.53;;;;;;;31.19;39.11;100847.16;4967324;28;20518;-81
2022/06/01 08:25:18;;;;;;;14.68;6.38;;;;;;;31.44;38.78;100851.59;4950308;28;20102;-83
2022/06/01 08:27:44;;;;;;;11.88;6.43;;;;;;;31.97;37.28;100845.09;4966732;28;20106;-82
2022/06/01 08:30:10;;;;;;;11.48;6.20;;;;;;;32.47;36.55;100856.56;4930182;29;20032;-82
2022/06/01 08:32:36;;;;;;;13.68;5.95;;;;;;;32.19;36.65;100847.28;4951182;29;20031;-82
2022/06/01 08:35:03;;;;;;;11.48;5.97;;;;;;;31.78;37.96;100847.84;4951313;29;20064;-81
2022/06/01 08:37:29;;;;;;;10.48;5.68;;;;;;;31.32;38.21;100854.78;4952763;28;20170;-82
2022/06/01 08:39:54;;;;;;;10.52;5.10;;;;;;;31.80;37.48;100861.47;4935293;29;20114;-82
2022/06/01 08:42:20;;;;;;;9.88;5.68;;;;;;;32.16;36.72;100861.78;4952068;29;20041;-82
2022/06/01 08:44:47;;;;;;;11.48;5.63;;;;;;;32.09;35.85;100862.16;4950282;29;20118;-82
2022/06/01 08:47:18;;;;;;;8.00;5.10;;;;;;;32.33;36.05;100861.25;4951543;29;20071;-82
2022/06/01 08:49:45;;;;;;;9.50;6.60;;;;;;;32.75;35.66;100867.81;4966873;28;20117;-83
2022/06/01 08:52:10;;;;;;;13.13;5.75;;;;;;;32.83;34.61;100858.78;4950910;29;20039;-83
2022/06/01 08:54:36;;;;;;;12.43;5.43;;;;;;;32.44;35.11;100850.78;4950896;29;20090;-83
2022/06/01 08:57:11;;;;;;;11.98;4.90;;;;;;;33.09;33.69;100849.97;4934588;29;20035;-82
2022/06/01 09:00:09;;;;;;;8.07;5.00;;;;;;;33.25;34.61;100848.53;4950969;29;20110;-82
2022/06/01 09:02:37;;;;;;;9.50;4.97;;;;;;;34.36;31.91;100848.38;4957855;28;20027;-84
2022/06/01 09:05:09;;;;;;;12.63;5.30;;;;;;;34.82;31.71;100845.25;4950706;29;20054;-83
2022/06/01 09:07:44;;;;;;;9.50;5.20;;;;;;;34.97;31.41;100823.63;4951595;28;20031;-83
2022/06/01 09:10:27;;;;;;;9.90;5.00;;;;;;;35.83;29.93;100842.69;4966365;28;20081;-83
2022/06/01 09:13:00;;;;;;;7.65;5.10;;;;;;;35.18;30.44;100841.50;4961851;28;20051;-82
2022/06/01 09:15:27;;;;;;;11.02;5.38;;;;;;;35.68;29.59;100851.53;4950841;29;20028;-83
2022/06/01 09:17:54;;;;;;;10.88;4.80;;;;;;;35.41;29.79;100850.63;4966221;28;20122;-85
2022/06/01 09:23:11;;;;;;;8.10;5.00;;;;;;;35.60;29.65;100849.50;4964221;28;20110;-83
2022/06/01 09:25:38;;;;;;;7.63;4.63;;;;;;;34.62;30.37;100856.94;4944582;29;20043;-82
2022/06/01 09:28:43;;;;;;;8.82;4.78;;;;;;;35.08;30.29;100855.72;4949637;29;20558;-83
2022/06/01 09:31:27;;;;;;;10.07;5.00;;;;;;;35.26;29.72;100856.63;4946549;28;20050;-83
2022/06/01 09:33:52;;;;;;;8.75;5.10;;;;;;;36.14;28.53;100853.75;4933543;29;20106;-82
2022/06/01 09:36:27;;;;;;;13.02;4.90;;;;;;;37.30;27.31;100856.81;4949202;28;20508;-82
2022/06/01 09:38:55;;;;;;;8.70;4.70;;;;;;;37.06;27.03;100858.22;4966427;28;20121;-82
2022/06/01 09:41:21;;;;;;;9.38;4.82;;;;;;;37.10;27.12;100856.41;4949928;29;20023;-80
2022/06/01 09:43:56;;;;;;;5.57;4.65;;;;;;;38.04;26.13;100865.81;4951544;28;20038;-81
2022/06/01 09:46:22;;;;;;;;;;;;;;;37.93;26.02;100863.41;4966284;28;20028;-81
2022/06/01 09:48:48;;;;;;;7.80;4.90;;;;;;;37.80;25.70;100847.63;4951652;28;20009;-82
2022/06/01 09:51:21;;;;;;;10.80;4.78;;;;;;;37.52;26.61;100859.34;4950694;28;20483;-82
2022/06/01 09:53:52;;;;;;;10.93;4.78;;;;;;;37.45;26.85;100853.44;4938219;29;20078;-81
2022/06/01 09:56:28;;;;;;;10.70;5.20;;;;;;;37.80;25.99;100865.28;4940676;28;20113;-81
2022/06/01 10:07:20;;;;;;;;;;;;;;;38.75;25.31;100845.16;4951431;29;20054;-81
2022/06/01 10:09:59;;;;;;;8.50;5.38;;;;;;;37.81;26.71;100852.06;4953278;29;19922;-82
2022/06/01 10:12:41;;;;;;;12.23;5.15;;;;;;;37.56;26.71;100848.31;4954159;29;20055;-81
2022/06/01 10:15:30;;;;;;;7.18;5.10;;;;;;;37.02;27.42;100837.63;4937834;29;20035;-81
2022/06/01 10:18:11;;;;;;;7.88;5.13;;;;;;;37.80;26.56;100830.81;4947357;28;20474;-82
2022/06/01 10:20:48;;;;;;;8.13;5.10;;;;;;;38.04;26.08;100837.75;4947144;29;20174;-83
2022/06/01 10:23:44;;;;;;;11.88;4.95;;;;;;;37.28;27.40;100829.13;4953414;29;20510;-83
2022/06/01 10:26:14;;;;;;;7.15;4.80;;;;;;;37.74;26.77;100829.34;4943279;29;20547;-83
2022/06/01 10:28:44;;;;;;;11.77;4.80;;;;;;;37.58;26.11;100820.72;4968599;28;20035;-82
2022/06/01 10:31:45;;;;;;;9.35;4.90;;;;;;;38.10;26.08;100816.75;4947297;29;20444;-80
2022/06/01 10:34:23;;;;;;;10.60;4.88;;;;;;;39.05;24.66;100823.34;4940957;29;20039;-81
2022/06/01 10:36:56;;;;;;;12.25;5.30;;;;;;;39.58;24.54;100817.84;4931996;29;20039;-81
2022/06/01 10:39:23;;;;;;;8.18;4.70;;;;;;;39.21;24.36;100810.22;4952380;28;20031;-81
2022/06/01 10:41:55;;;;;;;9.95;5.28;;;;;;;38.04;25.87;100823.72;4966737;28;20077;-81
2022/06/01 10:44:25;;;;;;;8.52;4.90;;;;;;;37.18;27.43;100819.13;4968707;28;20035;-82
2022/06/01 10:46:57;;;;;;;8.48;4.90;;;;;;;35.77;29.50;100813.22;4936910;29;20046;-81
2022/06/01 10:49:22;;;;;;;7.90;4.80;;;;;;;35.65;29.17;100827.03;4936949;29;20035;-81
2022/06/01 10:52:00;;;;;;;9.93;4.88;;;;;;;35.44;29.92;100822.00;4953538;28;20097;-82
2022/06/01 10:55:00;;;;;;;10.45;5.43;;;;;;;34.92;30.90;100826.56;4977654;28;20103;-81
2022/06/01 10:57:26;;;;;;;8.23;4.78;;;;;;;35.29;30.65;100828.88;4933524;28;20107;-82
2022/06/01 10:59:51;;;;;;;11.20;4.78;;;;;;;35.44;29.85;100829.56;4972894;28;20048;-83
2022/06/01 11:02:39;;;;;;;10.82;4.78;;;;;;;35.10;30.73;100822.72;4954483;28;20062;-85
2022/06/01 11:05:15;;;;;;;9.27;4.70;;;;;;;34.22;31.79;100829.72;4954412;28;20039;-82
2022/06/01 11:08:18;;;;;;;9.13;5.30;;;;;;;33.41;33.21;100835.94;4968228;28;20031;-84
2022/06/01 11:11:01;;;;;;;12.95;5.10;;;;;;;32.82;34.70;100829.25;4953527;29;20054;-81
2022/06/01 11:13:42;;;;;;;8.00;5.20;;;;;;;32.56;34.96;100831.69;4954635;29;20483;-82
2022/06/01 11:16:27;;;;;;;9.68;5.60;;;;;;;32.87;35.02;100826.38;4953484;29;20023;-82
2022/06/01 11:19:27;;;;;;;11.15;5.32;;;;;;;32.28;36.45;100825.16;4950207;29;20042;-84
2022/06/01 11:22:11;;;;;;;15.85;5.65;;;;;;;32.14;36.26;100828.72;4951092;29;20556;-82
2022/06/01 11:25:08;;;;;;;10.68;5.47;;;;;;;32.10;36.60;100821.28;4951468;29;20035;-82
2022/06/01 11:28:12;;;;;;;14.35;6.00;;;;;;;31.11;38.42;100831.13;4965442;28;20041;-80
2022/06/01 11:30:53;;;;;;;8.55;5.70;;;;;;;31.37;38.85;100828.88;4950167;29;20055;-81
2022/06/01 11:33:30;;;;;;;12.52;5.68;;;;;;;31.26;39.22;100824.59;4934771;29;20039;-81
2022/06/01 11:36:12;;;;;;;11.07;5.95;;;;;;;31.57;38.80;100821.47;4950491;28;20059;-81
2022/06/01 11:38:47;;;;;;;10.70;5.70;;;;;;;31.61;38.16;100819.72;4952011;29;20086;-82
2022/06/01 11:41:23;;;;;;;10.20;5.70;;;;;;;31.47;38.59;100828.00;4966046;28;20145;-81
2022/06/01 11:44:13;;;;;;;14.27;6.03;;;;;;;31.16;39.47;100819.97;4953558;28;20070;-83
2022/06/01 11:46:42;;;;;;;12.43;5.72;;;;;;;31.75;38.54;100815.94;4963849;28;20130;-82
2022/06/01 11:49:39;;;;;;;12.80;6.30;;;;;;;31.11;40.03;100820.03;4955634;29;20071;-87
2022/06/01 11:52:23;;;;;;;12.73;5.97;;;;;;;30.96;40.19;100834.91;4961251;29;20206;-87
2022/06/01 11:55:26;;;;;;;9.80;6.18;;;;;;;30.15;42.59;100814.22;4950308;29;20035;-87
2022/06/01 11:58:06;;;;;;;12.00;5.73;;;;;;;29.87;43.55;100813.84;4955189;28;20137;-84
2022/06/01 12:01:00;;;;;;;15.43;6.28;;;;;;;30.15;42.82;100805.88;4948556;29;20112;-88
2022/06/01 12:03:56;;;;;;;15.88;6.50;;;;;;;29.59;44.36;100818.94;4953985;29;20044;-85